Hlavní strana
METAR-TAF:

METAR-TAF

Letiště :

Čeljabinsk, Rusko

zeměpisná šířka: 55-10N, zeměpisná délka: 061-24E, výška: 234 m

Aktuální stav počasí

Zpráva byla vytvořena před 45 minutami, v 10:00 UTC
Jihojihozápadní vítr 14 kt
Teplota -3°C
Vlhkost vzduchu 63%
Tlak 1008 hPa
Viditelnost 10 km a více
Oblačno až skoro zataženo ve výšce 3000 ft

METAR: USCC 211000Z 21007MPS 9999 BKN030 M03/M09 Q1008 R27/420350 TEMPO 20010MPS 1200 SN BLSN VV003 RMK QFE736

Čas: 15:45 (10:45 UTC)

Předpověď počasí

Zpráva byla vytvořena před 2 hodinami a 45 minutami, v 08:00 UTC
Předpověď platná od 21 v 09 UTC do 22 v 09 UTC
Jihojihozápadní vítr 10 kt s nárazy do 19 kt
Viditelnost: 5000 m
Zataženo ve výšce 1500 ft
kouřmo, kouř
Dočasný
od 21 v 09 UTC do 22 v 09 UTC
Jihojihozápadní vítr 16 kt s nárazy do 29 kt
Viditelnost: 3100 m
Zataženo ve výšce 1100 ft
slabé sněžení, zvířený sníh

TAF: USCC 210800Z 2109/2209 20005G10MPS 5000 BR FU OVC015 TEMPO 2109/2209 20008G15MPS 3100 -SN BLSN OVC011

Stav a předpovědi počasí z více než 4 000 letišť (zprávy METAR a TAF).

Červené a žluté tečky na mapě představují dostupné meteorologické stanice.

Když kurzor umístíte na tečku, zobrazí se název stanice.

Pak kliknutím zobrazíte stav a předpověď počasí.

Chcete-li změnit mapu, kliknutím na zelené tlačítko se znaménkem +mapu přiblížíte, kliknutím na zelené tlačítko se znaménkem – mapu oddálíte a kliknutím na zelené šipky přejdete na sousední mapy.


METAR-TAF: